sensor_id;sensor_type;location;lat;lon;timestamp;P1;durP1;ratioP1;P2;durP2;ratioP2
13218;SDS011;6674;49.152;11.918;2023-05-10T00:00:39;2.67;;;2.47;;
13218;SDS011;6674;49.152;11.918;2023-05-10T00:03:06;2.70;;;2.50;;
13218;SDS011;6674;49.152;11.918;2023-05-10T00:05:32;2.50;;;2.30;;
13218;SDS011;6674;49.152;11.918;2023-05-10T00:07:59;2.80;;;2.60;;
13218;SDS011;6674;49.152;11.918;2023-05-10T00:10:27;3.03;;;2.83;;
13218;SDS011;6674;49.152;11.918;2023-05-10T00:12:53;2.90;;;2.70;;
13218;SDS011;6674;49.152;11.918;2023-05-10T00:15:20;2.93;;;2.73;;
13218;SDS011;6674;49.152;11.918;2023-05-10T00:17:47;2.70;;;2.50;;
13218;SDS011;6674;49.152;11.918;2023-05-10T00:20:13;2.67;;;2.47;;
13218;SDS011;6674;49.152;11.918;2023-05-10T00:22:40;3.07;;;2.77;;
13218;SDS011;6674;49.152;11.918;2023-05-10T00:25:08;2.93;;;2.63;;
13218;SDS011;6674;49.152;11.918;2023-05-10T00:27:36;2.93;;;2.73;;
13218;SDS011;6674;49.152;11.918;2023-05-10T00:30:03;2.53;;;2.40;;
13218;SDS011;6674;49.152;11.918;2023-05-10T00:32:31;2.90;;;2.50;;
13218;SDS011;6674;49.152;11.918;2023-05-10T00:34:58;3.00;;;2.80;;
13218;SDS011;6674;49.152;11.918;2023-05-10T00:37:25;2.73;;;2.53;;
13218;SDS011;6674;49.152;11.918;2023-05-10T00:39:51;2.73;;;2.53;;
13218;SDS011;6674;49.152;11.918;2023-05-10T00:42:18;2.87;;;2.67;;
13218;SDS011;6674;49.152;11.918;2023-05-10T00:44:46;3.03;;;2.83;;
13218;SDS011;6674;49.152;11.918;2023-05-10T00:47:13;2.97;;;2.53;;
13218;SDS011;6674;49.152;11.918;2023-05-10T00:49:40;2.67;;;2.47;;
13218;SDS011;6674;49.152;11.918;2023-05-10T00:52:07;3.00;;;2.77;;
13218;SDS011;6674;49.152;11.918;2023-05-10T00:54:34;2.77;;;2.57;;
13218;SDS011;6674;49.152;11.918;2023-05-10T00:57:01;2.63;;;2.43;;
13218;SDS011;6674;49.152;11.918;2023-05-10T00:59:28;2.67;;;2.47;;
13218;SDS011;6674;49.152;11.918;2023-05-10T01:01:57;2.20;;;2.10;;
13218;SDS011;6674;49.152;11.918;2023-05-10T01:04:24;2.67;;;2.47;;
13218;SDS011;6674;49.152;11.918;2023-05-10T01:06:51;3.00;;;2.67;;
13218;SDS011;6674;49.152;11.918;2023-05-10T01:09:19;2.77;;;2.57;;
13218;SDS011;6674;49.152;11.918;2023-05-10T01:11:46;2.80;;;2.60;;
13218;SDS011;6674;49.152;11.918;2023-05-10T01:14:13;2.93;;;2.73;;
13218;SDS011;6674;49.152;11.918;2023-05-10T01:16:42;3.20;;;2.90;;
13218;SDS011;6674;49.152;11.918;2023-05-10T01:19:15;2.67;;;2.47;;
13218;SDS011;6674;49.152;11.918;2023-05-10T01:21:48;2.70;;;2.50;;
13218;SDS011;6674;49.152;11.918;2023-05-10T01:24:25;3.00;;;2.77;;
13218;SDS011;6674;49.152;11.918;2023-05-10T01:33:16;3.47;;;3.17;;
13218;SDS011;6674;49.152;11.918;2023-05-10T01:35:47;3.17;;;2.97;;
13218;SDS011;6674;49.152;11.918;2023-05-10T01:38:21;3.20;;;3.00;;
13218;SDS011;6674;49.152;11.918;2023-05-10T01:40:57;3.63;;;3.33;;
13218;SDS011;6674;49.152;11.918;2023-05-10T01:43:36;3.30;;;3.10;;
13218;SDS011;6674;49.152;11.918;2023-05-10T01:46:09;3.20;;;2.90;;
13218;SDS011;6674;49.152;11.918;2023-05-10T01:48:44;3.43;;;3.10;;
13218;SDS011;6674;49.152;11.918;2023-05-10T01:51:14;3.17;;;2.90;;
13218;SDS011;6674;49.152;11.918;2023-05-10T01:53:46;2.90;;;2.70;;
13218;SDS011;6674;49.152;11.918;2023-05-10T01:56:15;3.00;;;2.80;;
13218;SDS011;6674;49.152;11.918;2023-05-10T01:58:43;2.97;;;2.77;;
13218;SDS011;6674;49.152;11.918;2023-05-10T02:01:12;3.33;;;2.70;;
13218;SDS011;6674;49.152;11.918;2023-05-10T02:03:39;3.20;;;2.90;;
13218;SDS011;6674;49.152;11.918;2023-05-10T02:06:10;3.10;;;2.90;;
13218;SDS011;6674;49.152;11.918;2023-05-10T02:08:38;4.27;;;3.10;;
13218;SDS011;6674;49.152;11.918;2023-05-10T02:11:07;3.00;;;2.77;;
13218;SDS011;6674;49.152;11.918;2023-05-10T02:13:36;3.27;;;3.07;;
13218;SDS011;6674;49.152;11.918;2023-05-10T02:16:04;3.57;;;3.27;;
13218;SDS011;6674;49.152;11.918;2023-05-10T02:18:32;3.10;;;2.90;;
13218;SDS011;6674;49.152;11.918;2023-05-10T02:21:03;3.90;;;3.60;;
13218;SDS011;6674;49.152;11.918;2023-05-10T02:23:30;4.10;;;3.50;;
13218;SDS011;6674;49.152;11.918;2023-05-10T02:25:58;3.83;;;3.53;;
13218;SDS011;6674;49.152;11.918;2023-05-10T02:28:26;3.50;;;3.30;;
13218;SDS011;6674;49.152;11.918;2023-05-10T02:30:54;3.77;;;3.47;;
13218;SDS011;6674;49.152;11.918;2023-05-10T02:33:22;3.50;;;3.20;;
13218;SDS011;6674;49.152;11.918;2023-05-10T02:35:50;3.57;;;3.27;;
13218;SDS011;6674;49.152;11.918;2023-05-10T02:38:18;3.80;;;3.40;;
13218;SDS011;6674;49.152;11.918;2023-05-10T02:40:46;3.50;;;3.20;;
13218;SDS011;6674;49.152;11.918;2023-05-10T02:43:14;3.93;;;3.63;;
13218;SDS011;6674;49.152;11.918;2023-05-10T02:45:42;4.10;;;3.80;;
13218;SDS011;6674;49.152;11.918;2023-05-10T02:48:09;4.13;;;3.80;;
13218;SDS011;6674;49.152;11.918;2023-05-10T02:50:36;4.07;;;3.77;;
13218;SDS011;6674;49.152;11.918;2023-05-10T02:53:06;3.53;;;3.33;;
13218;SDS011;6674;49.152;11.918;2023-05-10T02:55:38;3.77;;;3.47;;
13218;SDS011;6674;49.152;11.918;2023-05-10T02:58:08;4.20;;;3.80;;
13218;SDS011;6674;49.152;11.918;2023-05-10T03:00:35;3.33;;;3.03;;
13218;SDS011;6674;49.152;11.918;2023-05-10T03:03:01;4.53;;;4.13;;
13218;SDS011;6674;49.152;11.918;2023-05-10T03:05:28;5.33;;;4.27;;
13218;SDS011;6674;49.152;11.918;2023-05-10T03:07:55;4.77;;;4.40;;
13218;SDS011;6674;49.152;11.918;2023-05-10T03:10:22;3.90;;;3.60;;
13218;SDS011;6674;49.152;11.918;2023-05-10T03:13:01;4.10;;;3.80;;
13218;SDS011;6674;49.152;11.918;2023-05-10T03:15:35;4.70;;;4.17;;
13218;SDS011;6674;49.152;11.918;2023-05-10T03:18:07;4.03;;;3.63;;
13218;SDS011;6674;49.152;11.918;2023-05-10T03:20:38;4.23;;;3.83;;
13218;SDS011;6674;49.152;11.918;2023-05-10T03:23:11;4.17;;;3.77;;
13218;SDS011;6674;49.152;11.918;2023-05-10T03:25:39;4.50;;;4.17;;
13218;SDS011;6674;49.152;11.918;2023-05-10T03:28:10;4.63;;;4.23;;
13218;SDS011;6674;49.152;11.918;2023-05-10T03:30:38;4.63;;;4.33;;
13218;SDS011;6674;49.152;11.918;2023-05-10T03:33:06;5.17;;;4.73;;
13218;SDS011;6674;49.152;11.918;2023-05-10T03:35:32;5.40;;;5.00;;
13218;SDS011;6674;49.152;11.918;2023-05-10T03:37:59;4.67;;;4.27;;
13218;SDS011;6674;49.152;11.918;2023-05-10T03:40:26;5.20;;;4.70;;
13218;SDS011;6674;49.152;11.918;2023-05-10T03:42:56;5.63;;;5.13;;
13218;SDS011;6674;49.152;11.918;2023-05-10T03:45:24;5.00;;;4.60;;
13218;SDS011;6674;49.152;11.918;2023-05-10T03:47:51;5.00;;;4.60;;
13218;SDS011;6674;49.152;11.918;2023-05-10T03:50:18;5.90;;;5.40;;
13218;SDS011;6674;49.152;11.918;2023-05-10T03:52:44;4.70;;;4.30;;
13218;SDS011;6674;49.152;11.918;2023-05-10T03:55:11;4.93;;;4.53;;
13218;SDS011;6674;49.152;11.918;2023-05-10T03:57:38;5.50;;;5.00;;
13218;SDS011;6674;49.152;11.918;2023-05-10T04:00:05;5.43;;;5.03;;
13218;SDS011;6674;49.152;11.918;2023-05-10T04:02:33;5.93;;;5.20;;
13218;SDS011;6674;49.152;11.918;2023-05-10T04:05:00;5.60;;;5.10;;
13218;SDS011;6674;49.152;11.918;2023-05-10T04:07:27;4.37;;;4.07;;
13218;SDS011;6674;49.152;11.918;2023-05-10T04:09:54;4.73;;;4.33;;
13218;SDS011;6674;49.152;11.918;2023-05-10T04:12:21;5.30;;;4.90;;
13218;SDS011;6674;49.152;11.918;2023-05-10T04:14:47;5.00;;;4.60;;
13218;SDS011;6674;49.152;11.918;2023-05-10T04:17:14;5.17;;;4.77;;
13218;SDS011;6674;49.152;11.918;2023-05-10T04:19:42;5.40;;;4.90;;
13218;SDS011;6674;49.152;11.918;2023-05-10T04:22:09;5.30;;;4.80;;
13218;SDS011;6674;49.152;11.918;2023-05-10T04:24:35;4.93;;;4.53;;
13218;SDS011;6674;49.152;11.918;2023-05-10T04:27:02;5.20;;;4.70;;
13218;SDS011;6674;49.152;11.918;2023-05-10T04:29:29;4.93;;;4.53;;
13218;SDS011;6674;49.152;11.918;2023-05-10T04:31:56;5.23;;;4.83;;
13218;SDS011;6674;49.152;11.918;2023-05-10T04:34:22;6.60;;;5.60;;
13218;SDS011;6674;49.152;11.918;2023-05-10T04:36:50;5.63;;;5.23;;
13218;SDS011;6674;49.152;11.918;2023-05-10T04:39:17;5.40;;;4.97;;
13218;SDS011;6674;49.152;11.918;2023-05-10T04:41:44;6.50;;;5.90;;
13218;SDS011;6674;49.152;11.918;2023-05-10T04:44:10;5.73;;;5.23;;
13218;SDS011;6674;49.152;11.918;2023-05-10T04:46:37;6.00;;;5.50;;
13218;SDS011;6674;49.152;11.918;2023-05-10T04:49:04;6.23;;;5.73;;
13218;SDS011;6674;49.152;11.918;2023-05-10T04:51:31;5.57;;;5.00;;
13218;SDS011;6674;49.152;11.918;2023-05-10T04:53:59;6.20;;;5.60;;
13218;SDS011;6674;49.152;11.918;2023-05-10T04:56:26;6.07;;;5.57;;
13218;SDS011;6674;49.152;11.918;2023-05-10T04:58:53;6.13;;;5.63;;
13218;SDS011;6674;49.152;11.918;2023-05-10T05:01:19;5.60;;;5.10;;
13218;SDS011;6674;49.152;11.918;2023-05-10T05:03:48;6.20;;;5.70;;
13218;SDS011;6674;49.152;11.918;2023-05-10T05:06:14;5.77;;;5.23;;
13218;SDS011;6674;49.152;11.918;2023-05-10T05:08:41;6.57;;;6.07;;
13218;SDS011;6674;49.152;11.918;2023-05-10T05:11:09;5.17;;;4.73;;
13218;SDS011;6674;49.152;11.918;2023-05-10T05:13:36;5.77;;;5.27;;
13218;SDS011;6674;49.152;11.918;2023-05-10T05:16:03;5.37;;;4.87;;
13218;SDS011;6674;49.152;11.918;2023-05-10T05:18:30;5.67;;;5.23;;
13218;SDS011;6674;49.152;11.918;2023-05-10T05:20:56;5.33;;;4.83;;
13218;SDS011;6674;49.152;11.918;2023-05-10T05:23:23;5.37;;;4.97;;
13218;SDS011;6674;49.152;11.918;2023-05-10T05:25:51;4.97;;;4.57;;
13218;SDS011;6674;49.152;11.918;2023-05-10T05:28:19;4.90;;;4.50;;
13218;SDS011;6674;49.152;11.918;2023-05-10T05:30:46;5.07;;;4.60;;
13218;SDS011;6674;49.152;11.918;2023-05-10T05:33:13;5.43;;;5.03;;
13218;SDS011;6674;49.152;11.918;2023-05-10T05:35:40;5.33;;;4.93;;
13218;SDS011;6674;49.152;11.918;2023-05-10T05:38:08;4.80;;;4.47;;
13218;SDS011;6674;49.152;11.918;2023-05-10T05:40:34;4.53;;;4.13;;
13218;SDS011;6674;49.152;11.918;2023-05-10T05:43:02;5.30;;;4.80;;
13218;SDS011;6674;49.152;11.918;2023-05-10T05:45:30;5.13;;;4.73;;
13218;SDS011;6674;49.152;11.918;2023-05-10T05:47:57;5.53;;;5.03;;
13218;SDS011;6674;49.152;11.918;2023-05-10T05:50:23;5.47;;;4.97;;
13218;SDS011;6674;49.152;11.918;2023-05-10T05:52:50;4.90;;;4.50;;
13218;SDS011;6674;49.152;11.918;2023-05-10T05:55:17;6.20;;;5.70;;
13218;SDS011;6674;49.152;11.918;2023-05-10T05:57:44;4.70;;;4.30;;
13218;SDS011;6674;49.152;11.918;2023-05-10T06:00:11;4.60;;;4.20;;
13218;SDS011;6674;49.152;11.918;2023-05-10T06:02:40;4.97;;;4.30;;
13218;SDS011;6674;49.152;11.918;2023-05-10T06:05:07;4.87;;;4.47;;
13218;SDS011;6674;49.152;11.918;2023-05-10T06:07:34;4.93;;;4.53;;
13218;SDS011;6674;49.152;11.918;2023-05-10T06:10:01;5.00;;;4.60;;
13218;SDS011;6674;49.152;11.918;2023-05-10T06:12:28;4.47;;;4.07;;
13218;SDS011;6674;49.152;11.918;2023-05-10T06:14:54;4.93;;;4.53;;
13218;SDS011;6674;49.152;11.918;2023-05-10T06:17:24;4.57;;;4.17;;
13218;SDS011;6674;49.152;11.918;2023-05-10T06:19:52;3.37;;;3.07;;
13218;SDS011;6674;49.152;11.918;2023-05-10T06:22:19;3.80;;;3.40;;
13218;SDS011;6674;49.152;11.918;2023-05-10T06:24:47;3.50;;;3.20;;
13218;SDS011;6674;49.152;11.918;2023-05-10T06:27:14;3.47;;;3.27;;
13218;SDS011;6674;49.152;11.918;2023-05-10T06:29:41;2.20;;;2.10;;
13218;SDS011;6674;49.152;11.918;2023-05-10T06:32:07;1.40;;;1.30;;
13218;SDS011;6674;49.152;11.918;2023-05-10T06:34:34;1.43;;;1.33;;
13218;SDS011;6674;49.152;11.918;2023-05-10T06:37:02;1.17;;;1.07;;
13218;SDS011;6674;49.152;11.918;2023-05-10T06:39:29;0.87;;;0.87;;
13218;SDS011;6674;49.152;11.918;2023-05-10T06:41:55;0.70;;;0.70;;
13218;SDS011;6674;49.152;11.918;2023-05-10T06:44:22;0.80;;;0.80;;
13218;SDS011;6674;49.152;11.918;2023-05-10T06:46:50;0.93;;;0.93;;
13218;SDS011;6674;49.152;11.918;2023-05-10T06:49:18;0.50;;;0.50;;
13218;SDS011;6674;49.152;11.918;2023-05-10T06:51:45;1.33;;;0.77;;
13218;SDS011;6674;49.152;11.918;2023-05-10T06:54:13;0.87;;;0.60;;
13218;SDS011;6674;49.152;11.918;2023-05-10T06:56:40;0.70;;;0.67;;
13218;SDS011;6674;49.152;11.918;2023-05-10T06:59:07;0.70;;;0.70;;
13218;SDS011;6674;49.152;11.918;2023-05-10T07:01:33;1.87;;;1.07;;
13218;SDS011;6674;49.152;11.918;2023-05-10T07:04:00;0.80;;;0.80;;
13218;SDS011;6674;49.152;11.918;2023-05-10T07:06:27;1.00;;;0.90;;
13218;SDS011;6674;49.152;11.918;2023-05-10T07:08:54;0.80;;;0.80;;
13218;SDS011;6674;49.152;11.918;2023-05-10T07:11:22;0.97;;;0.97;;
13218;SDS011;6674;49.152;11.918;2023-05-10T07:13:48;1.00;;;1.00;;
13218;SDS011;6674;49.152;11.918;2023-05-10T07:16:15;1.10;;;1.00;;
13218;SDS011;6674;49.152;11.918;2023-05-10T07:18:42;0.80;;;0.80;;
13218;SDS011;6674;49.152;11.918;2023-05-10T07:21:08;1.13;;;1.03;;
13218;SDS011;6674;49.152;11.918;2023-05-10T07:23:35;1.10;;;1.10;;
13218;SDS011;6674;49.152;11.918;2023-05-10T07:26:02;0.83;;;0.83;;
13218;SDS011;6674;49.152;11.918;2023-05-10T07:28:30;1.23;;;1.23;;
13218;SDS011;6674;49.152;11.918;2023-05-10T07:30:57;1.53;;;1.20;;
13218;SDS011;6674;49.152;11.918;2023-05-10T07:33:23;1.00;;;1.00;;
13218;SDS011;6674;49.152;11.918;2023-05-10T07:35:50;0.90;;;0.90;;
13218;SDS011;6674;49.152;11.918;2023-05-10T07:38:18;1.17;;;1.00;;
13218;SDS011;6674;49.152;11.918;2023-05-10T07:40:46;1.00;;;1.00;;
13218;SDS011;6674;49.152;11.918;2023-05-10T07:43:14;0.87;;;0.80;;
13218;SDS011;6674;49.152;11.918;2023-05-10T07:45:44;0.73;;;0.73;;
13218;SDS011;6674;49.152;11.918;2023-05-10T07:48:12;1.20;;;1.20;;
13218;SDS011;6674;49.152;11.918;2023-05-10T07:50:40;1.07;;;0.97;;
13218;SDS011;6674;49.152;11.918;2023-05-10T07:53:08;1.23;;;1.20;;
13218;SDS011;6674;49.152;11.918;2023-05-10T07:55:36;1.30;;;1.20;;
13218;SDS011;6674;49.152;11.918;2023-05-10T07:58:04;1.30;;;1.20;;
13218;SDS011;6674;49.152;11.918;2023-05-10T08:00:32;1.83;;;1.53;;
13218;SDS011;6674;49.152;11.918;2023-05-10T08:03:02;0.80;;;0.80;;
13218;SDS011;6674;49.152;11.918;2023-05-10T08:05:29;1.37;;;1.27;;
13218;SDS011;6674;49.152;11.918;2023-05-10T08:07:56;1.20;;;1.20;;
13218;SDS011;6674;49.152;11.918;2023-05-10T08:10:24;1.20;;;1.20;;
13218;SDS011;6674;49.152;11.918;2023-05-10T08:12:50;1.43;;;1.33;;
13218;SDS011;6674;49.152;11.918;2023-05-10T08:15:17;1.10;;;1.10;;
13218;SDS011;6674;49.152;11.918;2023-05-10T08:17:44;1.50;;;1.07;;
13218;SDS011;6674;49.152;11.918;2023-05-10T08:20:12;0.97;;;0.97;;
13218;SDS011;6674;49.152;11.918;2023-05-10T08:22:41;1.37;;;1.37;;
13218;SDS011;6674;49.152;11.918;2023-05-10T08:25:08;1.63;;;1.10;;
13218;SDS011;6674;49.152;11.918;2023-05-10T08:27:35;1.23;;;1.20;;
13218;SDS011;6674;49.152;11.918;2023-05-10T08:30:01;1.80;;;0.90;;
13218;SDS011;6674;49.152;11.918;2023-05-10T08:32:28;1.07;;;1.07;;
13218;SDS011;6674;49.152;11.918;2023-05-10T08:34:55;0.93;;;0.77;;
13218;SDS011;6674;49.152;11.918;2023-05-10T08:37:24;0.77;;;0.77;;
13218;SDS011;6674;49.152;11.918;2023-05-10T08:39:50;0.90;;;0.90;;
13218;SDS011;6674;49.152;11.918;2023-05-10T08:42:19;0.70;;;0.70;;
13218;SDS011;6674;49.152;11.918;2023-05-10T08:44:48;0.73;;;0.60;;
13218;SDS011;6674;49.152;11.918;2023-05-10T08:47:15;0.67;;;0.67;;
13218;SDS011;6674;49.152;11.918;2023-05-10T08:49:44;0.70;;;0.63;;
13218;SDS011;6674;49.152;11.918;2023-05-10T08:52:14;1.00;;;1.00;;
13218;SDS011;6674;49.152;11.918;2023-05-10T08:54:44;1.40;;;1.30;;
13218;SDS011;6674;49.152;11.918;2023-05-10T08:57:10;1.13;;;1.10;;
13218;SDS011;6674;49.152;11.918;2023-05-10T08:59:37;1.53;;;1.30;;
13218;SDS011;6674;49.152;11.918;2023-05-10T09:02:04;1.30;;;1.30;;
13218;SDS011;6674;49.152;11.918;2023-05-10T09:04:31;1.30;;;1.30;;
13218;SDS011;6674;49.152;11.918;2023-05-10T09:06:58;1.90;;;1.30;;
13218;SDS011;6674;49.152;11.918;2023-05-10T09:09:25;2.27;;;1.70;;
13218;SDS011;6674;49.152;11.918;2023-05-10T09:11:54;1.43;;;1.43;;
13218;SDS011;6674;49.152;11.918;2023-05-10T09:14:21;1.30;;;1.20;;
13218;SDS011;6674;49.152;11.918;2023-05-10T09:16:50;1.00;;;1.00;;
13218;SDS011;6674;49.152;11.918;2023-05-10T09:19:18;1.30;;;1.20;;
13218;SDS011;6674;49.152;11.918;2023-05-10T09:21:45;1.50;;;1.20;;
13218;SDS011;6674;49.152;11.918;2023-05-10T09:24:12;0.80;;;0.80;;
13218;SDS011;6674;49.152;11.918;2023-05-10T09:26:45;1.60;;;1.50;;
13218;SDS011;6674;49.152;11.918;2023-05-10T09:29:14;1.10;;;1.10;;
13218;SDS011;6674;49.152;11.918;2023-05-10T09:31:45;1.30;;;1.20;;
13218;SDS011;6674;49.152;11.918;2023-05-10T09:34:15;1.40;;;1.30;;
13218;SDS011;6674;49.152;11.918;2023-05-10T09:36:53;1.20;;;1.20;;
13218;SDS011;6674;49.152;11.918;2023-05-10T09:39:21;1.40;;;1.30;;
13218;SDS011;6674;49.152;11.918;2023-05-10T09:41:57;1.40;;;1.30;;
13218;SDS011;6674;49.152;11.918;2023-05-10T09:44:26;1.40;;;1.30;;
13218;SDS011;6674;49.152;11.918;2023-05-10T09:46:53;1.47;;;1.23;;
13218;SDS011;6674;49.152;11.918;2023-05-10T09:49:20;1.10;;;1.10;;
13218;SDS011;6674;49.152;11.918;2023-05-10T09:51:47;1.40;;;1.30;;
13218;SDS011;6674;49.152;11.918;2023-05-10T09:54:23;1.47;;;1.43;;
13218;SDS011;6674;49.152;11.918;2023-05-10T09:56:50;2.20;;;1.30;;
13218;SDS011;6674;49.152;11.918;2023-05-10T09:59:16;1.57;;;1.47;;
13218;SDS011;6674;49.152;11.918;2023-05-10T10:01:50;1.73;;;1.63;;
13218;SDS011;6674;49.152;11.918;2023-05-10T10:04:17;1.63;;;1.53;;
13218;SDS011;6674;49.152;11.918;2023-05-10T10:06:44;1.40;;;1.30;;
13218;SDS011;6674;49.152;11.918;2023-05-10T10:09:10;1.60;;;1.60;;
13218;SDS011;6674;49.152;11.918;2023-05-10T10:11:38;1.30;;;1.20;;
13218;SDS011;6674;49.152;11.918;2023-05-10T10:14:06;1.13;;;1.03;;
13218;SDS011;6674;49.152;11.918;2023-05-10T10:16:33;0.70;;;0.70;;
13218;SDS011;6674;49.152;11.918;2023-05-10T10:19:01;0.50;;;0.50;;
13218;SDS011;6674;49.152;11.918;2023-05-10T10:21:28;0.50;;;0.40;;
13218;SDS011;6674;49.152;11.918;2023-05-10T10:23:56;0.63;;;0.40;;
13218;SDS011;6674;49.152;11.918;2023-05-10T10:26:22;0.30;;;0.30;;
13218;SDS011;6674;49.152;11.918;2023-05-10T10:28:51;0.60;;;0.47;;
13218;SDS011;6674;49.152;11.918;2023-05-10T10:31:36;1.10;;;0.53;;
13218;SDS011;6674;49.152;11.918;2023-05-10T10:34:06;0.60;;;0.40;;
13218;SDS011;6674;49.152;11.918;2023-05-10T10:36:42;0.70;;;0.40;;
13218;SDS011;6674;49.152;11.918;2023-05-10T10:39:10;0.60;;;0.40;;
13218;SDS011;6674;49.152;11.918;2023-05-10T10:41:38;2.20;;;0.40;;
13218;SDS011;6674;49.152;11.918;2023-05-10T10:44:25;0.40;;;0.40;;
13218;SDS011;6674;49.152;11.918;2023-05-10T10:47:22;0.57;;;0.50;;
13218;SDS011;6674;49.152;11.918;2023-05-10T10:50:03;0.77;;;0.50;;
13218;SDS011;6674;49.152;11.918;2023-05-10T10:52:32;0.47;;;0.40;;
13218;SDS011;6674;49.152;11.918;2023-05-10T10:55:00;0.43;;;0.43;;
13218;SDS011;6674;49.152;11.918;2023-05-10T10:57:31;1.20;;;0.53;;
13218;SDS011;6674;49.152;11.918;2023-05-10T11:02:49;0.80;;;0.80;;
13218;SDS011;6674;49.152;11.918;2023-05-10T11:05:25;0.60;;;0.60;;
13218;SDS011;6674;49.152;11.918;2023-05-10T11:08:10;0.60;;;0.60;;
13218;SDS011;6674;49.152;11.918;2023-05-10T11:10:51;1.47;;;0.90;;
13218;SDS011;6674;49.152;11.918;2023-05-10T11:13:33;1.23;;;1.03;;
13218;SDS011;6674;49.152;11.918;2023-05-10T11:16:16;0.90;;;0.90;;
13218;SDS011;6674;49.152;11.918;2023-05-10T11:18:56;1.30;;;1.30;;
13218;SDS011;6674;49.152;11.918;2023-05-10T11:21:26;1.07;;;1.07;;
13218;SDS011;6674;49.152;11.918;2023-05-10T11:23:53;0.80;;;0.80;;
13218;SDS011;6674;49.152;11.918;2023-05-10T11:26:23;0.97;;;0.97;;
13218;SDS011;6674;49.152;11.918;2023-05-10T11:28:51;1.67;;;1.13;;
13218;SDS011;6674;49.152;11.918;2023-05-10T11:31:20;0.63;;;0.63;;
13218;SDS011;6674;49.152;11.918;2023-05-10T11:33:49;1.13;;;1.00;;
13218;SDS011;6674;49.152;11.918;2023-05-10T11:36:17;1.03;;;1.00;;
13218;SDS011;6674;49.152;11.918;2023-05-10T11:38:47;1.53;;;0.90;;
13218;SDS011;6674;49.152;11.918;2023-05-10T11:41:15;2.17;;;0.87;;
13218;SDS011;6674;49.152;11.918;2023-05-10T11:43:44;0.80;;;0.80;;
13218;SDS011;6674;49.152;11.918;2023-05-10T11:46:13;1.13;;;0.70;;
13218;SDS011;6674;49.152;11.918;2023-05-10T11:48:40;1.33;;;0.97;;
13218;SDS011;6674;49.152;11.918;2023-05-10T11:51:08;1.17;;;0.60;;
13218;SDS011;6674;49.152;11.918;2023-05-10T11:53:36;0.83;;;0.60;;
13218;SDS011;6674;49.152;11.918;2023-05-10T11:56:05;0.43;;;0.43;;
13218;SDS011;6674;49.152;11.918;2023-05-10T11:58:32;0.33;;;0.33;;
13218;SDS011;6674;49.152;11.918;2023-05-10T12:00:59;4.63;;;0.60;;
13218;SDS011;6674;49.152;11.918;2023-05-10T12:03:26;1.37;;;0.60;;
13218;SDS011;6674;49.152;11.918;2023-05-10T12:05:53;0.93;;;0.70;;
13218;SDS011;6674;49.152;11.918;2023-05-10T12:08:21;1.03;;;0.60;;
13218;SDS011;6674;49.152;11.918;2023-05-10T12:10:49;2.03;;;0.50;;
13218;SDS011;6674;49.152;11.918;2023-05-10T12:13:18;1.50;;;0.80;;
13218;SDS011;6674;49.152;11.918;2023-05-10T12:15:46;0.50;;;0.50;;
13218;SDS011;6674;49.152;11.918;2023-05-10T12:18:13;0.50;;;0.50;;
13218;SDS011;6674;49.152;11.918;2023-05-10T12:20:41;1.10;;;0.90;;
13218;SDS011;6674;49.152;11.918;2023-05-10T12:23:08;0.97;;;0.77;;
13218;SDS011;6674;49.152;11.918;2023-05-10T12:25:35;1.20;;;0.70;;
13218;SDS011;6674;49.152;11.918;2023-05-10T12:28:04;0.60;;;0.60;;
13218;SDS011;6674;49.152;11.918;2023-05-10T12:30:33;0.60;;;0.60;;
13218;SDS011;6674;49.152;11.918;2023-05-10T12:33:01;1.67;;;0.60;;
13218;SDS011;6674;49.152;11.918;2023-05-10T12:35:30;0.83;;;0.80;;
13218;SDS011;6674;49.152;11.918;2023-05-10T12:37:57;0.70;;;0.50;;
13218;SDS011;6674;49.152;11.918;2023-05-10T12:40:24;0.50;;;0.50;;
13218;SDS011;6674;49.152;11.918;2023-05-10T12:42:51;0.77;;;0.60;;
13218;SDS011;6674;49.152;11.918;2023-05-10T12:45:18;0.93;;;0.83;;
13218;SDS011;6674;49.152;11.918;2023-05-10T12:47:46;0.73;;;0.60;;
13218;SDS011;6674;49.152;11.918;2023-05-10T12:50:13;0.80;;;0.57;;
13218;SDS011;6674;49.152;11.918;2023-05-10T12:52:39;0.60;;;0.60;;
13218;SDS011;6674;49.152;11.918;2023-05-10T12:55:06;1.17;;;0.67;;
13218;SDS011;6674;49.152;11.918;2023-05-10T12:57:34;0.60;;;0.60;;
13218;SDS011;6674;49.152;11.918;2023-05-10T13:00:00;0.60;;;0.53;;
13218;SDS011;6674;49.152;11.918;2023-05-10T13:02:27;0.70;;;0.70;;
13218;SDS011;6674;49.152;11.918;2023-05-10T13:04:55;0.80;;;0.80;;
13218;SDS011;6674;49.152;11.918;2023-05-10T13:07:25;0.87;;;0.60;;
13218;SDS011;6674;49.152;11.918;2023-05-10T13:09:52;0.60;;;0.60;;
13218;SDS011;6674;49.152;11.918;2023-05-10T13:12:19;1.13;;;0.70;;
13218;SDS011;6674;49.152;11.918;2023-05-10T13:14:46;0.63;;;0.63;;
13218;SDS011;6674;49.152;11.918;2023-05-10T13:17:13;1.37;;;1.00;;
13218;SDS011;6674;49.152;11.918;2023-05-10T13:19:40;0.87;;;0.80;;
13218;SDS011;6674;49.152;11.918;2023-05-10T13:22:08;0.90;;;0.90;;
13218;SDS011;6674;49.152;11.918;2023-05-10T13:24:35;0.67;;;0.67;;
13218;SDS011;6674;49.152;11.918;2023-05-10T13:27:01;1.73;;;0.93;;
13218;SDS011;6674;49.152;11.918;2023-05-10T13:29:28;0.60;;;0.53;;
13218;SDS011;6674;49.152;11.918;2023-05-10T13:31:55;1.00;;;0.80;;
13218;SDS011;6674;49.152;11.918;2023-05-10T13:34:21;1.00;;;0.80;;
13218;SDS011;6674;49.152;11.918;2023-05-10T13:36:49;0.70;;;0.53;;
13218;SDS011;6674;49.152;11.918;2023-05-10T13:39:17;0.77;;;0.77;;
13218;SDS011;6674;49.152;11.918;2023-05-10T13:41:45;0.80;;;0.70;;
13218;SDS011;6674;49.152;11.918;2023-05-10T13:44:12;0.77;;;0.60;;
13218;SDS011;6674;49.152;11.918;2023-05-10T13:46:39;0.80;;;0.47;;
13218;SDS011;6674;49.152;11.918;2023-05-10T13:49:06;0.60;;;0.57;;
13218;SDS011;6674;49.152;11.918;2023-05-10T13:51:33;0.80;;;0.80;;
13218;SDS011;6674;49.152;11.918;2023-05-10T13:54:01;0.70;;;0.70;;
13218;SDS011;6674;49.152;11.918;2023-05-10T13:56:29;1.30;;;0.70;;
13218;SDS011;6674;49.152;11.918;2023-05-10T13:58:56;0.50;;;0.50;;
13218;SDS011;6674;49.152;11.918;2023-05-10T14:01:23;0.70;;;0.70;;
13218;SDS011;6674;49.152;11.918;2023-05-10T14:03:51;1.43;;;0.90;;
13218;SDS011;6674;49.152;11.918;2023-05-10T14:06:18;0.80;;;0.80;;
13218;SDS011;6674;49.152;11.918;2023-05-10T14:08:45;1.23;;;0.80;;
13218;SDS011;6674;49.152;11.918;2023-05-10T14:11:12;1.23;;;1.13;;
13218;SDS011;6674;49.152;11.918;2023-05-10T14:13:40;1.50;;;1.40;;
13218;SDS011;6674;49.152;11.918;2023-05-10T14:16:07;1.60;;;1.50;;
13218;SDS011;6674;49.152;11.918;2023-05-10T14:18:33;1.37;;;1.27;;
13218;SDS011;6674;49.152;11.918;2023-05-10T14:21:01;1.20;;;1.10;;
13218;SDS011;6674;49.152;11.918;2023-05-10T14:23:28;1.80;;;1.33;;
13218;SDS011;6674;49.152;11.918;2023-05-10T14:25:55;1.00;;;0.90;;
13218;SDS011;6674;49.152;11.918;2023-05-10T14:28:22;2.10;;;1.30;;
13218;SDS011;6674;49.152;11.918;2023-05-10T14:30:51;1.20;;;1.10;;
13218;SDS011;6674;49.152;11.918;2023-05-10T14:33:18;2.13;;;1.40;;
13218;SDS011;6674;49.152;11.918;2023-05-10T14:35:45;1.10;;;0.97;;
13218;SDS011;6674;49.152;11.918;2023-05-10T14:38:12;0.87;;;0.87;;
13218;SDS011;6674;49.152;11.918;2023-05-10T14:40:39;1.53;;;1.20;;
13218;SDS011;6674;49.152;11.918;2023-05-10T14:43:05;1.30;;;1.07;;
13218;SDS011;6674;49.152;11.918;2023-05-10T14:45:32;1.53;;;0.90;;
13218;SDS011;6674;49.152;11.918;2023-05-10T14:48:00;1.20;;;1.07;;
13218;SDS011;6674;49.152;11.918;2023-05-10T14:50:29;1.07;;;0.93;;
13218;SDS011;6674;49.152;11.918;2023-05-10T14:52:56;0.93;;;0.90;;
13218;SDS011;6674;49.152;11.918;2023-05-10T14:55:23;1.07;;;1.03;;
13218;SDS011;6674;49.152;11.918;2023-05-10T14:57:49;1.10;;;1.00;;
13218;SDS011;6674;49.152;11.918;2023-05-10T15:00:16;1.13;;;1.03;;
13218;SDS011;6674;49.152;11.918;2023-05-10T15:02:44;1.63;;;1.20;;